createdAt,value
2023-03-15T00:00:10.750Z,104
2023-03-15T00:01:10.565Z,104
2023-03-15T00:02:11.188Z,104
2023-03-15T00:03:10.043Z,104
2023-03-15T00:04:10.547Z,104
2023-03-15T00:05:10.487Z,104
2023-03-15T00:06:10.536Z,104
2023-03-15T00:07:10.635Z,102
2023-03-15T00:08:13.001Z,102
2023-03-15T00:09:10.094Z,102
2023-03-15T00:10:10.340Z,102
2023-03-15T00:11:10.274Z,102
2023-03-15T00:12:10.503Z,102
2023-03-15T00:13:10.757Z,102
2023-03-15T00:14:10.103Z,102
2023-03-15T00:15:10.330Z,102
2023-03-15T00:16:10.552Z,102
2023-03-15T00:17:10.816Z,102
2023-03-15T00:18:10.001Z,102
2023-03-15T00:19:10.267Z,102
2023-03-15T00:20:10.085Z,102
2023-03-15T00:21:10.561Z,102
2023-03-15T00:22:10.940Z,102
2023-03-15T00:23:10.277Z,102
2023-03-15T00:24:10.593Z,102
2023-03-15T00:25:10.710Z,102
2023-03-15T00:26:10.014Z,102
2023-03-15T00:27:10.473Z,102
2023-03-15T00:28:10.677Z,102
2023-03-15T00:29:10.938Z,102
2023-03-15T00:30:10.183Z,102
2023-03-15T00:31:10.725Z,102
2023-03-15T00:32:10.797Z,102
2023-03-15T00:33:09.799Z,102
2023-03-15T00:34:10.288Z,102
2023-03-15T00:35:10.441Z,102
2023-03-15T00:36:10.984Z,102
2023-03-15T00:37:10.009Z,102
2023-03-15T00:38:10.352Z,102
2023-03-15T00:39:10.592Z,102
2023-03-15T00:40:11.014Z,102
2023-03-15T00:41:10.290Z,102
2023-03-15T00:42:10.871Z,102
2023-03-15T00:43:10.919Z,102
2023-03-15T00:44:10.442Z,102
2023-03-15T00:45:10.494Z,102
2023-03-15T00:46:11.408Z,102
2023-03-15T00:47:10.150Z,102
2023-03-15T00:48:10.337Z,102
2023-03-15T00:49:10.762Z,102
2023-03-15T00:50:10.077Z,102
2023-03-15T00:51:10.545Z,102
2023-03-15T00:52:11.209Z,102
2023-03-15T00:53:10.241Z,102
2023-03-15T00:54:10.530Z,102
2023-03-15T00:55:11.415Z,102
2023-03-15T00:56:10.290Z,102
2023-03-15T00:57:10.325Z,102
2023-03-15T00:58:11.582Z,102
2023-03-15T00:59:10.924Z,102
2023-03-15T01:00:09.887Z,102
2023-03-15T01:01:10.664Z,102
2023-03-15T01:02:11.165Z,102
2023-03-15T01:03:10.217Z,102
2023-03-15T01:04:10.262Z,102
2023-03-15T01:05:10.394Z,102
2023-03-15T01:06:10.182Z,102
2023-03-15T01:07:10.357Z,103
2023-03-15T01:08:10.851Z,103
2023-03-15T01:09:09.768Z,103
2023-03-15T01:10:10.301Z,103
2023-03-15T01:11:10.682Z,103
2023-03-15T01:12:10.849Z,103
2023-03-15T01:13:10.268Z,103
2023-03-15T01:14:10.462Z,103
2023-03-15T01:15:10.751Z,103
2023-03-15T01:16:10.752Z,103
2023-03-15T01:17:10.552Z,103
2023-03-15T01:18:11.007Z,103
2023-03-15T01:19:09.967Z,103
2023-03-15T01:20:10.287Z,103
2023-03-15T01:21:10.488Z,103
2023-03-15T01:22:10.797Z,103
2023-03-15T01:23:10.238Z,103
2023-03-15T01:24:10.400Z,103
2023-03-15T01:25:10.764Z,103
2023-03-15T01:26:11.071Z,103
2023-03-15T01:27:10.343Z,103
2023-03-15T01:28:10.479Z,103
2023-03-15T01:29:10.806Z,103
2023-03-15T01:30:11.095Z,103
2023-03-15T01:31:10.415Z,103
2023-03-15T01:32:10.834Z,103
2023-03-15T01:33:10.408Z,103
2023-03-15T01:34:11.134Z,103
2023-03-15T01:35:10.242Z,103
2023-03-15T01:36:10.611Z,103
2023-03-15T01:37:10.690Z,103
2023-03-15T01:38:11.074Z,103
2023-03-15T01:39:10.004Z,103
2023-03-15T01:40:10.546Z,103
2023-03-15T01:41:10.287Z,103
2023-03-15T01:42:10.959Z,103
2023-03-15T01:43:10.241Z,103
2023-03-15T01:44:10.145Z,103
2023-03-15T01:45:10.495Z,103
2023-03-15T01:46:11.025Z,103
2023-03-15T01:47:10.590Z,103
2023-03-15T01:48:10.255Z,103
2023-03-15T01:49:10.526Z,103
2023-03-15T01:50:10.490Z,103
2023-03-15T01:51:10.173Z,103
2023-03-15T01:52:10.294Z,103
2023-03-15T01:53:10.539Z,103
2023-03-15T01:54:11.124Z,103
2023-03-15T01:55:10.314Z,103
2023-03-15T01:56:10.546Z,103
2023-03-15T01:57:10.841Z,103
2023-03-15T01:58:10.054Z,103
2023-03-15T01:59:10.147Z,103
2023-03-15T02:00:10.510Z,103
2023-03-15T02:01:10.538Z,103
2023-03-15T02:02:10.906Z,103
2023-03-15T02:03:10.634Z,103
2023-03-15T02:04:10.162Z,103
2023-03-15T02:05:10.294Z,103
2023-03-15T02:06:10.434Z,103
2023-03-15T02:07:10.641Z,103
2023-03-15T02:08:11.001Z,103
2023-03-15T02:09:10.124Z,103
2023-03-15T02:10:10.336Z,103
2023-03-15T02:11:10.170Z,103
2023-03-15T02:12:10.659Z,103
2023-03-15T02:13:10.779Z,103
2023-03-15T02:14:11.089Z,103
2023-03-15T02:15:10.184Z,103
2023-03-15T02:16:10.818Z,103
2023-03-15T02:17:10.864Z,103
2023-03-15T02:18:10.097Z,103
2023-03-15T02:19:10.358Z,103
2023-03-15T02:20:10.693Z,103
2023-03-15T02:21:10.970Z,103
2023-03-15T02:22:09.994Z,103
2023-03-15T02:23:10.179Z,103
2023-03-15T02:24:10.496Z,103
2023-03-15T02:25:10.924Z,103
2023-03-15T02:26:10.249Z,103
2023-03-15T02:27:10.412Z,103
2023-03-15T02:28:10.655Z,103
2023-03-15T02:29:10.990Z,103
2023-03-15T02:30:10.186Z,103
2023-03-15T02:31:10.727Z,103
2023-03-15T02:32:11.100Z,103
2023-03-15T02:33:10.718Z,103
2023-03-15T02:34:10.060Z,103
2023-03-15T02:35:10.581Z,103
2023-03-15T02:36:11.074Z,103
2023-03-15T02:37:10.840Z,103
2023-03-15T02:38:10.310Z,103
2023-03-15T02:39:10.221Z,103
2023-03-15T02:40:10.703Z,103
2023-03-15T02:41:10.260Z,103
2023-03-15T02:42:10.698Z,103
2023-03-15T02:43:10.752Z,103
2023-03-15T02:44:10.186Z,103
2023-03-15T02:45:10.346Z,103
2023-03-15T02:46:10.555Z,103
2023-03-15T02:47:10.354Z,103
2023-03-15T02:48:10.495Z,103
2023-03-15T02:49:10.877Z,103
2023-03-15T02:50:10.086Z,103
2023-03-15T02:51:10.710Z,103
2023-03-15T02:52:10.726Z,103
2023-03-15T02:53:10.667Z,103
2023-03-15T02:54:10.179Z,103
2023-03-15T02:55:10.086Z,103
2023-03-15T02:56:10.428Z,103
2023-03-15T02:57:10.637Z,103
2023-03-15T02:58:11.084Z,103
2023-03-15T02:59:10.134Z,103
2023-03-15T03:00:10.388Z,103
2023-03-15T03:01:10.812Z,103
2023-03-15T03:02:10.843Z,103
2023-03-15T03:03:11.057Z,103
2023-03-15T03:04:10.278Z,103
2023-03-15T03:05:10.231Z,103
2023-03-15T03:06:11.016Z,103
2023-03-15T03:07:10.182Z,102
2023-03-15T03:08:10.344Z,102
2023-03-15T03:09:10.632Z,102
2023-03-15T03:10:10.608Z,102
2023-03-15T03:11:10.330Z,102
2023-03-15T03:12:10.410Z,102
2023-03-15T03:13:10.831Z,102
2023-03-15T03:14:10.969Z,102
2023-03-15T03:15:10.328Z,102
2023-03-15T03:16:10.834Z,102
2023-03-15T03:17:11.049Z,102
2023-03-15T03:18:10.287Z,102
2023-03-15T03:19:10.298Z,102
2023-03-15T03:20:10.672Z,102
2023-03-15T03:21:10.697Z,102
2023-03-15T03:22:10.347Z,102
2023-03-15T03:23:10.367Z,102
2023-03-15T03:24:10.301Z,102
2023-03-15T03:25:10.886Z,102
2023-03-15T03:26:10.277Z,102
2023-03-15T03:27:10.539Z,102
2023-03-15T03:28:10.748Z,102
2023-03-15T03:29:09.884Z,102
2023-03-15T03:30:10.157Z,102
2023-03-15T03:31:10.990Z,102
2023-03-15T03:32:10.721Z,102
2023-03-15T03:33:10.039Z,102
2023-03-15T03:34:10.349Z,102
2023-03-15T03:35:10.586Z,102
2023-03-15T03:36:10.203Z,102
2023-03-15T03:37:10.185Z,102
2023-03-15T03:38:10.376Z,102
2023-03-15T03:39:10.428Z,102
2023-03-15T03:40:10.630Z,102
2023-03-15T03:41:11.028Z,102
2023-03-15T03:42:10.052Z,102
2023-03-15T03:43:10.398Z,102
2023-03-15T03:44:10.809Z,102
2023-03-15T03:45:10.900Z,102
2023-03-15T03:46:11.359Z,102
2023-03-15T03:47:10.191Z,102
2023-03-15T03:48:10.204Z,102
2023-03-15T03:49:10.744Z,102
2023-03-15T03:50:10.893Z,102
2023-03-15T03:51:09.964Z,102
2023-03-15T03:52:10.335Z,102
2023-03-15T03:53:10.644Z,102
2023-03-15T03:54:10.770Z,102
2023-03-15T03:55:10.174Z,102
2023-03-15T03:56:10.660Z,102
2023-03-15T03:57:10.764Z,102
2023-03-15T03:58:10.074Z,102
2023-03-15T03:59:10.808Z,102
2023-03-15T04:00:10.691Z,102
2023-03-15T04:01:10.087Z,102
2023-03-15T04:02:10.301Z,102
2023-03-15T04:03:10.601Z,102
2023-03-15T04:04:11.078Z,102
2023-03-15T04:05:09.937Z,102
2023-03-15T04:06:10.636Z,102
2023-03-15T04:07:10.696Z,107
2023-03-15T04:08:10.810Z,107
2023-03-15T04:09:10.062Z,107
2023-03-15T04:10:10.259Z,107
2023-03-15T04:11:10.558Z,107
2023-03-15T04:12:10.507Z,107
2023-03-15T04:13:10.389Z,107
2023-03-15T04:14:10.576Z,107
2023-03-15T04:15:10.118Z,107
2023-03-15T04:16:10.611Z,107
2023-03-15T04:17:10.427Z,107
2023-03-15T04:18:10.452Z,107
2023-03-15T04:19:10.609Z,107
2023-03-15T04:20:10.139Z,107
2023-03-15T04:21:10.149Z,107
2023-03-15T04:22:10.580Z,107
2023-03-15T04:23:10.945Z,107
2023-03-15T04:24:10.297Z,107
2023-03-15T04:25:10.655Z,107
2023-03-15T04:26:10.121Z,107
2023-03-15T04:27:10.389Z,107
2023-03-15T04:28:10.722Z,107
2023-03-15T04:29:10.643Z,107
2023-03-15T04:30:10.893Z,107
2023-03-15T04:31:11.176Z,107
2023-03-15T04:32:10.134Z,107
2023-03-15T04:33:10.256Z,107
2023-03-15T04:34:10.645Z,107
2023-03-15T04:35:10.838Z,107
2023-03-15T04:36:11.435Z,107
2023-03-15T04:37:10.332Z,107
2023-03-15T04:38:10.480Z,107
2023-03-15T04:39:10.827Z,107
2023-03-15T04:40:10.244Z,107
2023-03-15T04:41:10.424Z,107
2023-03-15T04:42:10.645Z,107
2023-03-15T04:43:10.703Z,107
2023-03-15T04:44:09.975Z,107
2023-03-15T04:45:10.306Z,107
2023-03-15T04:46:10.702Z,107
2023-03-15T04:47:11.075Z,107
2023-03-15T04:48:10.099Z,107
2023-03-15T04:49:10.086Z,107
2023-03-15T04:50:10.526Z,107
2023-03-15T04:51:10.544Z,107
2023-03-15T04:52:10.879Z,107
2023-03-15T04:53:09.960Z,107
2023-03-15T04:54:10.694Z,107
2023-03-15T04:55:09.992Z,107
2023-03-15T04:56:13.032Z,107
2023-03-15T04:57:10.459Z,107
2023-03-15T04:58:10.889Z,107
2023-03-15T04:59:10.095Z,107
2023-03-15T05:00:10.499Z,107
2023-03-15T05:01:10.940Z,107
2023-03-15T05:02:12.607Z,107
2023-03-15T05:03:10.179Z,107
2023-03-15T05:04:10.081Z,107
2023-03-15T05:05:10.718Z,107
2023-03-15T05:06:10.859Z,107
2023-03-15T05:07:09.981Z,106
2023-03-15T05:08:10.445Z,106
2023-03-15T05:09:10.596Z,106
2023-03-15T05:10:10.885Z,106
2023-03-15T05:11:09.955Z,106
2023-03-15T05:12:10.206Z,106
2023-03-15T05:13:10.428Z,106
2023-03-15T05:14:10.942Z,106
2023-03-15T05:15:10.453Z,106
2023-03-15T05:16:10.561Z,106
2023-03-15T05:17:10.715Z,106
2023-03-15T05:18:10.950Z,106
2023-03-15T05:19:10.125Z,106
2023-03-15T05:20:10.501Z,106
2023-03-15T05:21:10.908Z,106
2023-03-15T05:22:10.095Z,106
2023-03-15T05:23:10.399Z,106
2023-03-15T05:24:10.820Z,106
2023-03-15T05:25:10.937Z,106
2023-03-15T05:26:10.042Z,106
2023-03-15T05:27:10.205Z,106
2023-03-15T05:28:10.718Z,106
2023-03-15T05:29:10.805Z,106
2023-03-15T05:30:09.910Z,106
2023-03-15T05:31:10.765Z,106
2023-03-15T05:32:11.361Z,106
2023-03-15T05:33:10.194Z,106
2023-03-15T05:34:10.160Z,106
2023-03-15T05:35:10.695Z,106
2023-03-15T05:36:10.468Z,106
2023-03-15T05:37:10.083Z,106
2023-03-15T05:38:10.299Z,106
2023-03-15T05:39:10.508Z,106
2023-03-15T05:40:10.583Z,106
2023-03-15T05:41:10.341Z,106
2023-03-15T05:42:10.953Z,106
2023-03-15T05:43:10.160Z,106
2023-03-15T05:44:10.286Z,106
2023-03-15T05:45:10.882Z,106
2023-03-15T05:46:10.402Z,106
2023-03-15T05:47:10.464Z,106
2023-03-15T05:48:10.772Z,106
2023-03-15T05:49:10.856Z,106
2023-03-15T05:50:10.344Z,106
2023-03-15T05:51:10.460Z,106
2023-03-15T05:52:10.771Z,106
2023-03-15T05:53:10.723Z,106
2023-03-15T05:54:10.224Z,106
2023-03-15T05:55:10.173Z,106
2023-03-15T05:56:10.772Z,106
2023-03-15T05:57:10.126Z,106
2023-03-15T05:58:09.959Z,106
2023-03-15T05:59:10.372Z,106
2023-03-15T06:00:10.738Z,106
2023-03-15T06:01:10.065Z,106
2023-03-15T06:02:10.493Z,106
2023-03-15T06:03:10.777Z,106
2023-03-15T06:04:11.037Z,106
2023-03-15T06:05:09.712Z,106
2023-03-15T06:06:10.169Z,106
2023-03-15T06:07:10.200Z,104
2023-03-15T06:08:10.286Z,104
2023-03-15T06:09:10.859Z,104
2023-03-15T06:10:09.959Z,104
2023-03-15T06:11:10.095Z,104
2023-03-15T06:12:10.261Z,104
2023-03-15T06:13:10.782Z,104
2023-03-15T06:14:09.989Z,104
2023-03-15T06:15:10.282Z,104
2023-03-15T06:16:10.567Z,104
2023-03-15T06:17:10.680Z,104
2023-03-15T06:18:09.995Z,104
2023-03-15T06:19:10.530Z,104
2023-03-15T06:20:10.749Z,104
2023-03-15T06:21:10.114Z,104
2023-03-15T06:22:10.500Z,104
2023-03-15T06:23:10.556Z,104
2023-03-15T06:24:10.641Z,104
2023-03-15T06:25:09.998Z,104
2023-03-15T06:26:10.282Z,104
2023-03-15T06:27:10.487Z,104
2023-03-15T06:28:10.870Z,104
2023-03-15T06:29:10.947Z,104
2023-03-15T06:30:10.073Z,104
2023-03-15T06:31:10.343Z,104
2023-03-15T06:32:10.804Z,104
2023-03-15T06:33:10.912Z,104
2023-03-15T06:34:09.882Z,104
2023-03-15T06:35:10.555Z,104
2023-03-15T06:36:11.185Z,104
2023-03-15T06:37:10.846Z,104
2023-03-15T06:38:12.027Z,104
2023-03-15T06:39:10.571Z,104
2023-03-15T06:40:10.601Z,104
2023-03-15T06:41:10.124Z,104
2023-03-15T06:42:10.439Z,104
2023-03-15T06:43:10.704Z,104
2023-03-15T06:44:09.960Z,104
2023-03-15T06:45:10.415Z,104
2023-03-15T06:46:10.735Z,104
2023-03-15T06:47:10.781Z,104
2023-03-15T06:48:10.501Z,104
2023-03-15T06:49:10.798Z,104
2023-03-15T06:50:10.072Z,104
2023-03-15T06:51:10.448Z,104
2023-03-15T06:52:10.811Z,104
2023-03-15T06:53:09.985Z,104
2023-03-15T06:54:10.139Z,104
2023-03-15T06:55:10.660Z,104
2023-03-15T06:56:09.941Z,104
2023-03-15T06:57:10.219Z,104
2023-03-15T06:58:10.496Z,104
2023-03-15T06:59:10.707Z,104
2023-03-15T07:00:10.222Z,104
2023-03-15T07:01:10.493Z,104
2023-03-15T07:02:10.529Z,104
2023-03-15T07:03:10.858Z,104
2023-03-15T07:04:12.420Z,104
2023-03-15T07:05:10.246Z,104
2023-03-15T07:06:10.553Z,104
2023-03-15T07:07:10.138Z,104
2023-03-15T07:08:10.256Z,104
2023-03-15T07:09:10.703Z,104
2023-03-15T07:10:10.749Z,104
2023-03-15T07:11:10.398Z,104
2023-03-15T07:12:10.509Z,104
2023-03-15T07:13:10.393Z,104
2023-03-15T07:14:10.654Z,104
2023-03-15T07:15:10.923Z,104
2023-03-15T07:16:10.855Z,104
2023-03-15T07:17:10.598Z,104
2023-03-15T07:18:10.736Z,104
2023-03-15T07:19:09.974Z,104
2023-03-15T07:20:10.323Z,104
2023-03-15T07:21:10.478Z,104
2023-03-15T07:22:10.990Z,104
2023-03-15T07:23:10.208Z,104
2023-03-15T07:24:10.206Z,104
2023-03-15T07:25:10.707Z,104
2023-03-15T07:26:10.126Z,104
2023-03-15T07:27:10.318Z,104
2023-03-15T07:28:10.339Z,104
2023-03-15T07:29:10.771Z,104
2023-03-15T07:30:10.172Z,104
2023-03-15T07:31:10.486Z,104
2023-03-15T07:32:11.165Z,104
2023-03-15T07:33:10.684Z,104
2023-03-15T07:34:10.432Z,104
2023-03-15T07:35:12.980Z,104
2023-03-15T07:36:10.234Z,104
2023-03-15T07:37:10.451Z,104
2023-03-15T07:38:10.479Z,104
2023-03-15T07:39:10.238Z,104
2023-03-15T07:40:10.340Z,104
2023-03-15T07:41:10.149Z,104
2023-03-15T07:42:10.841Z,104
2023-03-15T07:43:09.860Z,104
2023-03-15T07:44:10.214Z,104
2023-03-15T07:45:10.395Z,104
2023-03-15T07:46:10.089Z,104
2023-03-15T07:47:10.316Z,104
2023-03-15T07:48:10.638Z,104
2023-03-15T07:49:10.744Z,104
2023-03-15T07:50:10.160Z,104
2023-03-15T07:51:10.976Z,104
2023-03-15T07:52:10.740Z,104
2023-03-15T07:53:10.166Z,104
2023-03-15T07:54:10.639Z,104
2023-03-15T07:55:10.662Z,104
2023-03-15T07:56:10.665Z,104
2023-03-15T07:57:11.051Z,104
2023-03-15T07:58:10.235Z,104
2023-03-15T07:59:10.396Z,104
2023-03-15T08:00:10.806Z,104
2023-03-15T08:01:10.879Z,104
2023-03-15T08:02:11.998Z,104
2023-03-15T08:03:10.276Z,104
2023-03-15T08:04:10.777Z,104
2023-03-15T08:05:10.750Z,104
2023-03-15T08:06:10.656Z,104
2023-03-15T08:07:09.888Z,99
2023-03-15T08:08:10.236Z,99
2023-03-15T08:09:10.767Z,99
2023-03-15T08:10:10.992Z,99
2023-03-15T08:11:10.121Z,99
2023-03-15T08:12:10.513Z,99
2023-03-15T08:13:10.780Z,99
2023-03-15T08:14:10.166Z,99
2023-03-15T08:15:10.246Z,99
2023-03-15T08:16:10.917Z,99
2023-03-15T08:17:09.859Z,99
2023-03-15T08:18:12.657Z,99
2023-03-15T08:19:10.290Z,99
2023-03-15T08:20:10.720Z,99
2023-03-15T08:21:10.950Z,99
2023-03-15T08:22:10.214Z,99
2023-03-15T08:23:10.334Z,99
2023-03-15T08:24:10.568Z,99
2023-03-15T08:25:10.942Z,99
2023-03-15T08:26:10.368Z,99
2023-03-15T08:27:10.834Z,99
2023-03-15T08:28:10.676Z,99
2023-03-15T08:29:10.015Z,99
2023-03-15T08:30:10.644Z,99
2023-03-15T08:31:10.669Z,99
2023-03-15T08:32:10.395Z,99
2023-03-15T08:33:10.771Z,99
2023-03-15T08:34:10.645Z,99
2023-03-15T08:35:10.963Z,99
2023-03-15T08:36:10.434Z,99
2023-03-15T08:37:10.774Z,99
2023-03-15T08:38:10.213Z,99
2023-03-15T08:39:10.513Z,99
2023-03-15T08:40:10.617Z,99
2023-03-15T08:41:10.651Z,99
2023-03-15T08:42:09.976Z,99
2023-03-15T08:43:10.039Z,99
2023-03-15T08:44:10.362Z,99
2023-03-15T08:45:10.678Z,99
2023-03-15T08:46:10.910Z,99
2023-03-15T08:47:10.508Z,99
2023-03-15T08:48:10.733Z,99
2023-03-15T08:49:10.891Z,99
2023-03-15T08:50:10.142Z,99
2023-03-15T08:51:10.382Z,99
2023-03-15T08:52:10.191Z,99
2023-03-15T08:53:10.477Z,99
2023-03-15T08:54:10.690Z,99
2023-03-15T08:55:10.002Z,99
2023-03-15T08:56:10.652Z,99
2023-03-15T08:57:10.682Z,99
2023-03-15T08:58:13.112Z,99
2023-03-15T08:59:11.457Z,99
2023-03-15T09:01:09.902Z,99
2023-03-15T09:02:10.671Z,99
2023-03-15T09:03:10.513Z,99
2023-03-15T09:04:10.122Z,99
2023-03-15T09:05:10.415Z,99
2023-03-15T09:06:10.449Z,99
2023-03-15T09:07:10.630Z,100
2023-03-15T09:08:11.063Z,100
2023-03-15T09:09:10.300Z,100
2023-03-15T09:10:13.679Z,100
2023-03-15T09:11:10.404Z,100
2023-03-15T09:12:10.570Z,100
2023-03-15T09:13:11.132Z,100
2023-03-15T09:14:09.936Z,100
2023-03-15T09:15:12.205Z,100
2023-03-15T09:16:10.137Z,100
2023-03-15T09:17:10.497Z,100
2023-03-15T09:18:10.166Z,100
2023-03-15T09:19:10.451Z,100
2023-03-15T09:20:10.622Z,100
2023-03-15T09:21:10.588Z,100
2023-03-15T09:22:43.767Z,100
2023-03-15T09:24:10.052Z,100
2023-03-15T09:25:10.552Z,100
2023-03-15T09:26:10.831Z,100
2023-03-15T09:27:10.561Z,100
2023-03-15T09:28:10.605Z,100
2023-03-15T09:29:10.149Z,100
2023-03-15T09:30:10.092Z,100
2023-03-15T09:31:10.655Z,100
2023-03-15T09:32:11.019Z,100
2023-03-15T09:33:10.795Z,100
2023-03-15T09:34:10.251Z,100
2023-03-15T09:35:10.707Z,100
2023-03-15T09:36:11.522Z,100
2023-03-15T09:37:10.145Z,100
2023-03-15T09:38:10.489Z,100
2023-03-15T09:39:10.626Z,100
2023-03-15T09:40:10.956Z,100
2023-03-15T09:41:10.373Z,100
2023-03-15T09:42:12.942Z,100
2023-03-15T09:43:11.113Z,100
2023-03-15T09:44:10.092Z,100
2023-03-15T09:45:10.567Z,100
2023-03-15T09:46:11.335Z,100
2023-03-15T09:47:10.052Z,100
2023-03-15T09:48:10.581Z,100
2023-03-15T09:49:10.775Z,100
2023-03-15T09:50:10.346Z,100
2023-03-15T09:51:10.828Z,100
2023-03-15T09:52:10.209Z,100
2023-03-15T09:53:10.159Z,100
2023-03-15T09:54:10.338Z,100
2023-03-15T09:55:10.874Z,100
2023-03-15T09:56:10.571Z,100
2023-03-15T09:57:10.662Z,100
2023-03-15T09:58:10.808Z,100
2023-03-15T09:59:10.257Z,100
2023-03-15T10:00:10.373Z,100
2023-03-15T10:01:10.978Z,100
2023-03-15T10:02:10.344Z,100
2023-03-15T10:03:10.285Z,100
2023-03-15T10:04:10.945Z,100
2023-03-15T10:05:10.755Z,100
2023-03-15T10:06:09.969Z,100
2023-03-15T10:07:10.453Z,101
2023-03-15T10:08:10.853Z,101
2023-03-15T10:09:09.936Z,101
2023-03-15T10:10:10.273Z,101
2023-03-15T10:11:10.717Z,101
2023-03-15T10:12:10.787Z,101
2023-03-15T10:13:10.347Z,101
2023-03-15T10:14:10.404Z,101
2023-03-15T10:15:10.848Z,101
2023-03-15T10:16:10.783Z,101
2023-03-15T10:17:10.503Z,101
2023-03-15T10:18:10.869Z,101
2023-03-15T10:19:10.695Z,101
2023-03-15T10:20:10.379Z,101
2023-03-15T10:21:13.424Z,101
2023-03-15T10:22:10.024Z,101
2023-03-15T10:23:10.443Z,101
2023-03-15T10:24:10.453Z,101
2023-03-15T10:25:10.755Z,101
2023-03-15T10:26:10.978Z,101
2023-03-15T10:27:10.486Z,101
2023-03-15T10:28:10.669Z,101
2023-03-15T10:29:10.792Z,101
2023-03-15T10:30:10.027Z,101
2023-03-15T10:31:10.301Z,101
2023-03-15T10:32:10.260Z,101
2023-03-15T10:33:10.393Z,101
2023-03-15T10:34:10.525Z,101
2023-03-15T10:35:10.997Z,101
2023-03-15T10:36:19.827Z,101
2023-03-15T10:37:10.470Z,101
2023-03-15T10:38:10.612Z,101
2023-03-15T10:39:11.026Z,101
2023-03-15T10:40:10.288Z,101
2023-03-15T10:41:13.321Z,101
2023-03-15T10:42:10.122Z,101
2023-03-15T10:43:12.276Z,101
2023-03-15T10:44:10.503Z,101
2023-03-15T10:45:10.775Z,101
2023-03-15T10:46:11.057Z,101
2023-03-15T10:47:28.994Z,101
2023-03-15T10:48:10.381Z,101
2023-03-15T10:49:10.439Z,101
2023-03-15T10:50:10.853Z,101
2023-03-15T10:51:11.652Z,101
2023-03-15T10:52:10.036Z,101
2023-03-15T10:53:10.136Z,101
2023-03-15T10:54:10.713Z,101
2023-03-15T10:55:13.001Z,101
2023-03-15T10:56:10.269Z,101
2023-03-15T10:57:10.270Z,101
2023-03-15T10:58:10.658Z,101
2023-03-15T10:59:21.229Z,101
2023-03-15T11:00:09.882Z,101
2023-03-15T11:01:10.755Z,101
2023-03-15T11:02:10.877Z,101
2023-03-15T11:03:10.566Z,101
2023-03-15T11:04:10.588Z,101
2023-03-15T11:05:10.875Z,101
2023-03-15T11:06:10.806Z,101
2023-03-15T11:07:10.510Z,102
2023-03-15T11:08:10.956Z,102
2023-03-15T11:09:09.862Z,102
2023-03-15T11:10:10.342Z,102
2023-03-15T11:11:10.618Z,102
2023-03-15T11:12:10.826Z,102
2023-03-15T11:13:09.919Z,102
2023-03-15T11:14:10.607Z,102
2023-03-15T11:15:12.165Z,102
2023-03-15T11:16:10.581Z,102
2023-03-15T11:17:10.196Z,102
2023-03-15T11:18:12.660Z,102
2023-03-15T11:19:10.735Z,102
2023-03-15T11:20:10.234Z,102
2023-03-15T11:21:10.210Z,102
2023-03-15T11:22:10.622Z,102
2023-03-15T11:23:10.784Z,102
2023-03-15T11:24:09.912Z,102
2023-03-15T11:25:10.352Z,102
2023-03-15T11:26:10.831Z,102
2023-03-15T11:27:10.334Z,102
2023-03-15T11:28:10.541Z,102
2023-03-15T11:29:09.890Z,102
2023-03-15T11:30:09.912Z,102
2023-03-15T11:31:11.053Z,102
2023-03-15T11:32:09.971Z,102
2023-03-15T11:33:10.202Z,102
2023-03-15T11:34:10.473Z,102
2023-03-15T11:35:10.685Z,102
2023-03-15T11:36:11.823Z,102
2023-03-15T11:37:15.273Z,102
2023-03-15T11:38:20.039Z,102
2023-03-15T11:39:10.058Z,102
2023-03-15T11:40:19.194Z,102
2023-03-15T11:41:10.286Z,102
2023-03-15T11:42:12.673Z,102
2023-03-15T11:43:10.063Z,102
2023-03-15T11:44:10.338Z,102
2023-03-15T11:45:10.807Z,102
2023-03-15T11:46:10.421Z,102
2023-03-15T11:47:10.296Z,102
2023-03-15T11:48:10.531Z,102
2023-03-15T11:49:10.649Z,102
2023-03-15T11:50:10.037Z,102
2023-03-15T11:51:10.359Z,102
2023-03-15T11:52:10.166Z,102
2023-03-15T11:53:10.273Z,102
2023-03-15T11:54:10.411Z,102
2023-03-15T11:55:10.748Z,102
2023-03-15T11:56:09.900Z,102
2023-03-15T11:57:10.196Z,102
2023-03-15T11:58:10.137Z,102
2023-03-15T11:59:10.541Z,102
2023-03-15T12:00:10.209Z,102
2023-03-15T12:01:10.063Z,102
2023-03-15T12:02:10.409Z,102
2023-03-15T12:03:10.620Z,102
2023-03-15T12:04:09.908Z,102
2023-03-15T12:05:22.192Z,102
2023-03-15T12:06:10.447Z,102
2023-03-15T12:07:09.876Z,105
2023-03-15T12:08:10.116Z,105
2023-03-15T12:09:10.232Z,105
2023-03-15T12:10:10.723Z,105
2023-03-15T12:11:10.180Z,105
2023-03-15T12:12:10.532Z,105
2023-03-15T12:13:10.811Z,105
2023-03-15T12:14:10.766Z,105
2023-03-15T12:15:10.411Z,105
2023-03-15T12:16:10.528Z,105
2023-03-15T12:17:10.663Z,105
2023-03-15T12:18:10.012Z,105
2023-03-15T12:19:10.183Z,105
2023-03-15T12:20:10.380Z,105
2023-03-15T12:21:10.128Z,105
2023-03-15T12:22:10.467Z,105
2023-03-15T12:23:10.676Z,105
2023-03-15T12:24:10.837Z,105
2023-03-15T12:25:10.253Z,105
2023-03-15T12:26:10.636Z,105
2023-03-15T12:27:09.851Z,105
2023-03-15T12:28:10.201Z,105
2023-03-15T12:29:10.365Z,105
2023-03-15T12:30:10.661Z,105
2023-03-15T12:31:10.052Z,105
2023-03-15T12:32:10.150Z,105
2023-03-15T12:33:10.406Z,105
2023-03-15T12:34:10.683Z,105
2023-03-15T12:35:09.855Z,105
2023-03-15T12:36:10.174Z,105
2023-03-15T12:37:10.773Z,105
2023-03-15T12:38:10.796Z,105
2023-03-15T12:39:10.309Z,105
2023-03-15T12:40:10.422Z,105
2023-03-15T12:41:09.832Z,105
2023-03-15T12:42:10.555Z,105
2023-03-15T12:43:10.766Z,105
2023-03-15T12:44:09.893Z,105
2023-03-15T12:45:10.149Z,105
2023-03-15T12:46:10.970Z,105
2023-03-15T12:47:10.763Z,105
2023-03-15T12:48:09.974Z,105
2023-03-15T12:49:10.089Z,105
2023-03-15T12:50:10.221Z,105
2023-03-15T12:51:10.179Z,105
2023-03-15T12:52:10.654Z,105
2023-03-15T12:53:09.865Z,105
2023-03-15T12:54:10.442Z,105
2023-03-15T12:55:10.528Z,105
2023-03-15T12:56:17.114Z,105
2023-03-15T12:57:10.072Z,105
2023-03-15T12:58:10.417Z,105
2023-03-15T12:59:10.611Z,105
2023-03-15T13:00:10.866Z,105
2023-03-15T13:01:10.427Z,105
2023-03-15T13:02:10.616Z,105
2023-03-15T13:03:11.220Z,105
2023-03-15T13:04:10.124Z,105
2023-03-15T13:05:10.402Z,105
2023-03-15T13:06:12.729Z,105
2023-03-15T13:07:10.781Z,100
2023-03-15T13:08:09.948Z,100
2023-03-15T13:09:10.313Z,100
2023-03-15T13:10:11.241Z,100
2023-03-15T13:11:10.169Z,100
2023-03-15T13:12:10.174Z,100
2023-03-15T13:13:10.259Z,100
2023-03-15T13:14:10.535Z,100
2023-03-15T13:15:11.059Z,100
2023-03-15T13:16:10.410Z,100
2023-03-15T13:17:11.959Z,100
2023-03-15T13:18:10.573Z,100
2023-03-15T13:19:10.598Z,100
2023-03-15T13:20:10.785Z,100
2023-03-15T13:21:10.087Z,100
2023-03-15T13:22:10.306Z,100
2023-03-15T13:23:10.234Z,100
2023-03-15T13:24:10.766Z,100
2023-03-15T13:25:10.818Z,100
2023-03-15T13:26:10.213Z,100
2023-03-15T13:27:10.577Z,100
2023-03-15T13:28:10.955Z,100
2023-03-15T13:29:10.113Z,100
2023-03-15T13:30:10.720Z,100
2023-03-15T13:31:10.377Z,100
2023-03-15T13:32:10.107Z,100
2023-03-15T13:33:10.597Z,100
2023-03-15T13:34:10.512Z,100
2023-03-15T13:35:10.062Z,100
2023-03-15T13:36:10.471Z,100
2023-03-15T13:37:10.394Z,100
2023-03-15T13:38:10.634Z,100
2023-03-15T13:39:10.096Z,100
2023-03-15T13:40:10.507Z,100
2023-03-15T13:41:10.868Z,100
2023-03-15T13:42:10.412Z,100
2023-03-15T13:43:10.425Z,100
2023-03-15T13:44:10.684Z,100
2023-03-15T13:45:10.832Z,100
2023-03-15T13:46:10.576Z,100
2023-03-15T13:47:10.363Z,100
2023-03-15T13:48:11.718Z,100
2023-03-15T13:49:09.953Z,100
2023-03-15T13:50:10.485Z,100